CheckWX is a tool to help pilots better visualize weather data.  It is not intended as a substitute for an official pre-flight weather briefing.

13:00:45 UTC

EDDV TAF
Hannover Airport
Hannover, Germany
TAF EDDV 191100Z 1912/2012 30010KT 9999 SCT035 BECMG 1916/1919 25003KT

Sep-19@
12:00 UTC

Sep-19 @ 12:00 UTC

Sep-19@
16:00 UTC

Sep-19 @ 16:00 UTC

TAF EDDV 191100Z 1912/2012 30010KT 9999 SCT035
Wind
  • 300° at 10 KTS
Cloud Levels
  • Scattered at 3,500' AGL

Sep-19@
16:00 UTC

Sep-19 @ 16:00 UTC

Sep-20@
12:00 UTC

Sep-20 @ 12:00 UTC

BECMG 1916/1919 25003KT

Becoming

Becoming Conditions expected by Thu, Sep 19, 2019 @ 19:00 UTC

Wind
  • 250° at 3 KTS
Cloud Levels
  • Scattered at 3,500' AGL